# Tabular Observed and Forecast Hydrograph Information
#
# Location: Feather River - Boyds Landing (FBLC1)
#
# File Generation Time: 05/06/2026 at 07:47 AM PDT
# Data Interval: 1 Hour
#
# Most Recent Date & Time of Maximum Observed: 05/01/2026 at 11:00 AM PDT
# Maximum Observed Stage: 29.32 Feet
# Maximum Observed Flow: 4707 cfs
#
# Earliest Date & Time of Maximum Forecast: 05/10/2026 at 07:00 PM PDT
# Maximum Forecast Stage: 29.07 Feet
# Maximum Forecast Flow: 4334 cfs
#
# OBSERVED
#
# Date & Time (Local) Stage (Feet) Flow (cfs) Trend Observed Status
# ---------------------------------------------------------------------------------
05/01/2026 07 AM PDT 29.30 4677 Normal
05/01/2026 08 AM PDT 29.31 4692 + Normal
05/01/2026 09 AM PDT 29.32 4707 + Normal
05/01/2026 10 AM PDT 29.32 4707 0 Normal
05/01/2026 11 AM PDT 29.32 4707 0 Normal
05/01/2026 12 PM PDT 29.31 4692 - Normal
05/01/2026 01 PM PDT 29.30 4677 - Normal
05/01/2026 02 PM PDT 29.30 4677 0 Normal
05/01/2026 03 PM PDT 29.29 4662 - Normal
05/01/2026 04 PM PDT 29.27 4632 - Normal
05/01/2026 05 PM PDT 29.27 4632 0 Normal
05/01/2026 06 PM PDT 29.27 4632 0 Normal
05/01/2026 07 PM PDT 29.25 4602 - Normal
05/01/2026 08 PM PDT 29.25 4602 0 Normal
05/01/2026 09 PM PDT 29.25 4602 0 Normal
05/01/2026 10 PM PDT 29.25 4602 0 Normal
05/01/2026 11 PM PDT 29.25 4602 0 Normal
05/02/2026 12 AM PDT 29.25 4602 0 Normal
05/02/2026 01 AM PDT 29.25 4602 0 Normal
05/02/2026 02 AM PDT 29.25 4602 0 Normal
05/02/2026 03 AM PDT 29.24 4587 - Normal
05/02/2026 04 AM PDT 29.24 4587 0 Normal
05/02/2026 05 AM PDT 29.23 4572 - Normal
05/02/2026 06 AM PDT 29.22 4557 - Normal
05/02/2026 07 AM PDT 29.21 4542 - Normal
05/02/2026 08 AM PDT 29.20 4527 - Normal
05/02/2026 09 AM PDT 29.19 4512 - Normal
05/02/2026 10 AM PDT 29.17 4482 - Normal
05/02/2026 11 AM PDT 29.16 4468 - Normal
05/02/2026 12 PM PDT 29.14 4438 - Normal
05/02/2026 01 PM PDT 29.11 4393 - Normal
05/02/2026 02 PM PDT 29.09 4364 - Normal
05/02/2026 03 PM PDT 29.07 4334 - Normal
05/02/2026 04 PM PDT 29.05 4305 - Normal
05/02/2026 05 PM PDT 29.03 4275 - Normal
05/02/2026 06 PM PDT 29.01 4246 - Normal
05/02/2026 07 PM PDT 29.00 4231 - Normal
05/02/2026 08 PM PDT 28.99 4217 - Normal
05/02/2026 09 PM PDT 28.99 4217 0 Normal
05/02/2026 10 PM PDT 28.99 4217 0 Normal
05/02/2026 11 PM PDT 28.98 4202 - Normal
05/03/2026 12 AM PDT 28.98 4202 0 Normal
05/03/2026 01 AM PDT 28.97 4187 - Normal
05/03/2026 02 AM PDT 28.96 4173 - Normal
05/03/2026 03 AM PDT 28.95 4158 - Normal
05/03/2026 04 AM PDT 28.94 4144 - Normal
05/03/2026 05 AM PDT 28.93 4129 - Normal
05/03/2026 06 AM PDT 28.92 4114 - Normal
05/03/2026 07 AM PDT 28.89 4071 - Normal
05/03/2026 08 AM PDT 28.89 4071 0 Normal
05/03/2026 09 AM PDT 28.89 4071 0 Normal
05/03/2026 10 AM PDT 28.87 4042 - Normal
05/03/2026 11 AM PDT 28.86 4027 - Normal
05/03/2026 12 PM PDT 28.84 3998 - Normal
05/03/2026 01 PM PDT 28.84 3998 0 Normal
05/03/2026 02 PM PDT 28.83 3984 - Normal
05/03/2026 03 PM PDT 28.83 3984 0 Normal
05/03/2026 04 PM PDT 28.82 3969 - Normal
05/03/2026 05 PM PDT 28.81 3955 - Normal
05/03/2026 06 PM PDT 28.80 3940 - Normal
05/03/2026 07 PM PDT 28.79 3926 - Normal
05/03/2026 08 PM PDT 28.79 3926 0 Normal
05/03/2026 09 PM PDT 28.78 3912 - Normal
05/03/2026 10 PM PDT 28.79 3926 + Normal
05/03/2026 11 PM PDT 28.78 3912 - Normal
05/04/2026 12 AM PDT 28.77 3897 - Normal
05/04/2026 01 AM PDT 28.77 3897 0 Normal
05/04/2026 02 AM PDT 28.76 3883 - Normal
05/04/2026 03 AM PDT 28.75 3868 - Normal
05/04/2026 04 AM PDT 28.74 3854 - Normal
05/04/2026 05 AM PDT 28.73 3840 - Normal
05/04/2026 06 AM PDT 28.71 3811 - Normal
05/04/2026 07 AM PDT 28.71 3811 0 Normal
05/04/2026 08 AM PDT 28.71 3811 0 Normal
05/04/2026 09 AM PDT 28.69 3782 - Normal
05/04/2026 10 AM PDT 28.68 3768 - Normal
05/04/2026 11 AM PDT 28.68 3768 0 Normal
05/04/2026 12 PM PDT 28.68 3768 0 Normal
05/04/2026 01 PM PDT 28.67 3754 - Normal
05/04/2026 02 PM PDT 28.67 3754 0 Normal
05/04/2026 03 PM PDT 28.67 3754 0 Normal
05/04/2026 04 PM PDT 28.67 3754 0 Normal
05/04/2026 05 PM PDT 28.68 3768 + Normal
05/04/2026 06 PM PDT 28.70 3797 + Normal
05/04/2026 07 PM PDT 28.72 3825 + Normal
05/04/2026 08 PM PDT 28.73 3840 + Normal
05/04/2026 09 PM PDT 28.74 3854 + Normal
05/04/2026 10 PM PDT 28.76 3883 + Normal
05/04/2026 11 PM PDT 28.77 3897 + Normal
05/05/2026 12 AM PDT 28.78 3912 + Normal
05/05/2026 01 AM PDT 28.78 3912 0 Normal
05/05/2026 02 AM PDT 28.78 3912 0 Normal
05/05/2026 03 AM PDT 28.79 3926 + Normal
05/05/2026 04 AM PDT 28.78 3912 - Normal
05/05/2026 05 AM PDT 28.77 3897 - Normal
05/05/2026 06 AM PDT 28.77 3897 0 Normal
05/05/2026 07 AM PDT 28.77 3897 0 Normal
05/05/2026 08 AM PDT 28.76 3883 - Normal
05/05/2026 09 AM PDT 28.77 3897 + Normal
05/05/2026 10 AM PDT 28.77 3897 0 Normal
05/05/2026 11 AM PDT 28.78 3912 + Normal
05/05/2026 12 PM PDT 28.78 3912 0 Normal
05/05/2026 01 PM PDT 28.78 3912 0 Normal
05/05/2026 02 PM PDT 28.80 3940 + Normal
05/05/2026 03 PM PDT 28.81 3955 + Normal
05/05/2026 04 PM PDT 28.81 3955 0 Normal
05/05/2026 05 PM PDT 28.81 3955 0 Normal
05/05/2026 06 PM PDT 28.80 3940 - Normal
05/05/2026 07 PM PDT 28.79 3926 - Normal
05/05/2026 08 PM PDT 28.78 3912 - Normal
05/05/2026 09 PM PDT 28.77 3897 - Normal
05/05/2026 10 PM PDT 28.76 3883 - Normal
05/05/2026 11 PM PDT 28.76 3883 0 Normal
05/06/2026 12 AM PDT 28.76 3883 0 Normal
05/06/2026 01 AM PDT 28.75 3868 - Normal
05/06/2026 02 AM PDT 28.76 3883 + Normal
05/06/2026 03 AM PDT 28.75 3868 - Normal
05/06/2026 04 AM PDT 28.76 3883 + Normal
05/06/2026 05 AM PDT 28.76 3883 0 Normal
05/06/2026 06 AM PDT 28.76 3883 0 Normal
05/06/2026 07 AM PDT 28.77 3897 + Normal
#
# FORECAST
#
# Date & Time (Local) Stage (Feet) Flow (cfs) Trend Forecast Status
# ---------------------------------------------------------------------------------
05/06/2026 08 AM PDT 28.78 3912 Normal
05/06/2026 09 AM PDT 28.79 3926 + Normal
05/06/2026 10 AM PDT 28.80 3940 + Normal
05/06/2026 11 AM PDT 28.81 3955 + Normal
05/06/2026 12 PM PDT 28.82 3969 + Normal
05/06/2026 01 PM PDT 28.83 3984 + Normal
05/06/2026 02 PM PDT 28.84 3998 + Normal
05/06/2026 03 PM PDT 28.84 3998 0 Normal
05/06/2026 04 PM PDT 28.85 4013 + Normal
05/06/2026 05 PM PDT 28.85 4013 0 Normal
05/06/2026 06 PM PDT 28.86 4027 + Normal
05/06/2026 07 PM PDT 28.86 4027 0 Normal
05/06/2026 08 PM PDT 28.86 4027 0 Normal
05/06/2026 09 PM PDT 28.86 4027 0 Normal
05/06/2026 10 PM PDT 28.86 4027 0 Normal
05/06/2026 11 PM PDT 28.86 4027 0 Normal
05/07/2026 12 AM PDT 28.86 4027 0 Normal
05/07/2026 01 AM PDT 28.86 4027 0 Normal
05/07/2026 02 AM PDT 28.85 4013 - Normal
05/07/2026 03 AM PDT 28.85 4013 0 Normal
05/07/2026 04 AM PDT 28.85 4013 0 Normal
05/07/2026 05 AM PDT 28.85 4013 0 Normal
05/07/2026 06 AM PDT 28.85 4013 0 Normal
05/07/2026 07 AM PDT 28.84 3998 - Normal
05/07/2026 08 AM PDT 28.84 3998 0 Normal
05/07/2026 09 AM PDT 28.84 3998 0 Normal
05/07/2026 10 AM PDT 28.84 3998 0 Normal
05/07/2026 11 AM PDT 28.84 3998 0 Normal
05/07/2026 12 PM PDT 28.83 3984 - Normal
05/07/2026 01 PM PDT 28.83 3984 0 Normal
05/07/2026 02 PM PDT 28.83 3984 0 Normal
05/07/2026 03 PM PDT 28.83 3984 0 Normal
05/07/2026 04 PM PDT 28.83 3984 0 Normal
05/07/2026 05 PM PDT 28.83 3984 0 Normal
05/07/2026 06 PM PDT 28.82 3969 - Normal
05/07/2026 07 PM PDT 28.82 3969 0 Normal
05/07/2026 08 PM PDT 28.82 3969 0 Normal
05/07/2026 09 PM PDT 28.82 3969 0 Normal
05/07/2026 10 PM PDT 28.82 3969 0 Normal
05/07/2026 11 PM PDT 28.83 3984 + Normal
05/08/2026 12 AM PDT 28.84 3998 + Normal
05/08/2026 01 AM PDT 28.84 3998 0 Normal
05/08/2026 02 AM PDT 28.85 4013 + Normal
05/08/2026 03 AM PDT 28.85 4013 0 Normal
05/08/2026 04 AM PDT 28.86 4027 + Normal
05/08/2026 05 AM PDT 28.86 4027 0 Normal
05/08/2026 06 AM PDT 28.85 4013 - Normal
05/08/2026 07 AM PDT 28.85 4013 0 Normal
05/08/2026 08 AM PDT 28.85 4013 0 Normal
05/08/2026 09 AM PDT 28.84 3998 - Normal
05/08/2026 10 AM PDT 28.84 3998 0 Normal
05/08/2026 11 AM PDT 28.84 3998 0 Normal
05/08/2026 12 PM PDT 28.83 3984 - Normal
05/08/2026 01 PM PDT 28.83 3984 0 Normal
05/08/2026 02 PM PDT 28.82 3969 - Normal
05/08/2026 03 PM PDT 28.82 3969 0 Normal
05/08/2026 04 PM PDT 28.82 3969 0 Normal
05/08/2026 05 PM PDT 28.81 3955 - Normal
05/08/2026 06 PM PDT 28.81 3955 0 Normal
05/08/2026 07 PM PDT 28.81 3955 0 Normal
05/08/2026 08 PM PDT 28.80 3940 - Normal
05/08/2026 09 PM PDT 28.80 3940 0 Normal
05/08/2026 10 PM PDT 28.80 3940 0 Normal
05/08/2026 11 PM PDT 28.80 3940 0 Normal
05/09/2026 12 AM PDT 28.80 3940 0 Normal
05/09/2026 01 AM PDT 28.79 3926 - Normal
05/09/2026 02 AM PDT 28.79 3926 0 Normal
05/09/2026 03 AM PDT 28.79 3926 0 Normal
05/09/2026 04 AM PDT 28.79 3926 0 Normal
05/09/2026 05 AM PDT 28.78 3912 - Normal
05/09/2026 06 AM PDT 28.78 3912 0 Normal
05/09/2026 07 AM PDT 28.78 3912 0 Normal
05/09/2026 08 AM PDT 28.78 3912 0 Normal
05/09/2026 09 AM PDT 28.78 3912 0 Normal
05/09/2026 10 AM PDT 28.78 3912 0 Normal
05/09/2026 11 AM PDT 28.77 3897 - Normal
05/09/2026 12 PM PDT 28.77 3897 0 Normal
05/09/2026 01 PM PDT 28.77 3897 0 Normal
05/09/2026 02 PM PDT 28.77 3897 0 Normal
05/09/2026 03 PM PDT 28.77 3897 0 Normal
05/09/2026 04 PM PDT 28.77 3897 0 Normal
05/09/2026 05 PM PDT 28.77 3897 0 Normal
05/09/2026 06 PM PDT 28.78 3912 + Normal
05/09/2026 07 PM PDT 28.79 3926 + Normal
05/09/2026 08 PM PDT 28.80 3940 + Normal
05/09/2026 09 PM PDT 28.81 3955 + Normal
05/09/2026 10 PM PDT 28.82 3969 + Normal
05/09/2026 11 PM PDT 28.84 3998 + Normal
05/10/2026 12 AM PDT 28.86 4027 + Normal
05/10/2026 01 AM PDT 28.88 4056 + Normal
05/10/2026 02 AM PDT 28.90 4085 + Normal
05/10/2026 03 AM PDT 28.92 4114 + Normal
05/10/2026 04 AM PDT 28.93 4129 + Normal
05/10/2026 05 AM PDT 28.95 4158 + Normal
05/10/2026 06 AM PDT 28.97 4187 + Normal
05/10/2026 07 AM PDT 28.98 4202 + Normal
05/10/2026 08 AM PDT 28.99 4217 + Normal
05/10/2026 09 AM PDT 29.01 4246 + Normal
05/10/2026 10 AM PDT 29.02 4261 + Normal
05/10/2026 11 AM PDT 29.02 4261 0 Normal
05/10/2026 12 PM PDT 29.03 4275 + Normal
05/10/2026 01 PM PDT 29.04 4290 + Normal
05/10/2026 02 PM PDT 29.05 4305 + Normal
05/10/2026 03 PM PDT 29.05 4305 0 Normal
05/10/2026 04 PM PDT 29.06 4320 + Normal
05/10/2026 05 PM PDT 29.06 4320 0 Normal
05/10/2026 06 PM PDT 29.06 4320 0 Normal
05/10/2026 07 PM PDT 29.07 4334 + Normal
05/10/2026 08 PM PDT 29.07 4334 0 Normal
05/10/2026 09 PM PDT 29.07 4334 0 Normal
05/10/2026 10 PM PDT 29.07 4334 0 Normal
05/10/2026 11 PM PDT 29.07 4334 0 Normal
05/11/2026 12 AM PDT 29.07 4334 0 Normal
05/11/2026 01 AM PDT 29.07 4334 0 Normal
05/11/2026 02 AM PDT 29.07 4334 0 Normal
05/11/2026 03 AM PDT 29.07 4334 0 Normal
05/11/2026 04 AM PDT 29.07 4334 0 Normal
05/11/2026 05 AM PDT 29.07 4334 0 Normal
#
# NOTE 1: Stages are rounded to the nearest hundredth (.01) of a foot.
# NOTE 2: Flows are rounded to the nearest (1) cfs.
# NOTE 3: Trends are determined using hourly change in unrounded stage and flow.
# NOTE 4: Maximum Values are determined using unrounded stage and flow.
|